map of IZO home
IZO - Airport
Location
City:  Izumo, Shimane, Japan
Near (Alt.):Hikawa
Name:Izumo Airport
ICAO:RJOC
IATA:IZO

Details
Type:Airport (Aerodrome, Airfield)
Latitude:35°24'49"N (35.413611)
Longitude:132°53'24"E (132.890000)
Datum:WGS 1984
Elevation:15 ft (5 m)
Variation:8.08°W (WMM2015 magnetic declination)
-0.07° annual change
Runways:1
Longest:6562 × 148 ft (2000 × 45 m), paved

Time
Time Zone:UTC+9
Local Time:

Weather
METAR:RJOC 180500Z 30008KT 9999 FEW025 SCT040 BKN045 10/02 Q1023
TAF:RJOC 180509Z 1806/1912 27007KT 9999 FEW025 SCT045

Related Locations
Nearby:
Farthest:SJEN: 12071 mi / 19427 km
Santa Vitória do Palmar [Pista Plá e Silva], RS, BR

Find:

   beyond  
but within

Other Information
Maps:
NOTAMs:
Links:
Sources:

  
  • flag of Japan
  • flag of Shimane
  • flag of Izumo
  

Sectional Chart

Flight Planning
at skyvector.com

Satellite Image

Google Maps Satellite view

 

Copyright © 2004-2019 Karl L. Swartz. All rights reserved.
The Great Circle Mapper name and logo are trademarks of the Great Circle Mapper.
All other trademarks mentioned herein belong to their respective owners.
Please see credits for attibutions and further copyright information.

  Follow gcmap on Facebook Follow gcmap on Twitter Follow gcmap on Google+ GCmap on LinkedIn

hCard Microformat

Geo Microformat